createdAt,value
2023-11-02T00:01:09.654Z,11.62
2023-11-02T00:03:46.761Z,11.57
2023-11-02T00:06:38.381Z,11.54
2023-11-02T00:09:40.529Z,11.55
2023-11-02T00:12:13.525Z,11.52
2023-11-02T00:14:55.442Z,11.49
2023-11-02T00:17:53.665Z,11.44
2023-11-02T00:20:38.461Z,11.45
2023-11-02T00:23:10.491Z,11.44
2023-11-02T00:25:57.577Z,11.41
2023-11-02T00:28:28.252Z,11.42
2023-11-02T00:30:58.344Z,11.44
2023-11-02T00:33:29.696Z,11.44
2023-11-02T00:36:02.588Z,11.48
2023-11-02T00:38:32.930Z,11.49
2023-11-02T00:41:04.336Z,11.51
2023-11-02T00:43:34.505Z,11.49
2023-11-02T00:46:04.621Z,11.49
2023-11-02T00:48:37.764Z,11.49
2023-11-02T00:51:21.334Z,11.48
2023-11-02T00:53:56.675Z,11.45
2023-11-02T00:56:31.161Z,11.42
2023-11-02T00:59:02.037Z,11.38
2023-11-02T01:01:33.268Z,11.33
2023-11-02T01:04:07.041Z,11.34
2023-11-02T01:06:40.875Z,11.30
2023-11-02T01:09:44.054Z,11.25
2023-11-02T01:12:14.702Z,11.22
2023-11-02T01:14:51.423Z,11.22
2023-11-02T01:17:31.960Z,11.22
2023-11-02T01:20:10.283Z,11.22
2023-11-02T01:22:56.817Z,11.20
2023-11-02T01:25:30.262Z,11.18
2023-11-02T01:28:08.145Z,11.19
2023-11-02T01:31:14.124Z,11.18
2023-11-02T01:34:05.613Z,11.19
2023-11-02T01:36:41.471Z,11.21
2023-11-02T01:39:50.017Z,11.20
2023-11-02T01:42:46.731Z,11.21
2023-11-02T01:45:26.026Z,11.20
2023-11-02T01:48:07.080Z,11.21
2023-11-02T01:50:39.436Z,11.20
2023-11-02T01:53:32.478Z,11.19
2023-11-02T01:56:26.471Z,11.13
2023-11-02T01:59:10.721Z,11.10
2023-11-02T02:01:45.909Z,11.09
2023-11-02T02:04:25.933Z,11.10
2023-11-02T02:07:07.963Z,11.10
2023-11-02T02:09:59.062Z,11.12
2023-11-02T02:12:37.817Z,11.11
2023-11-02T02:15:21.326Z,11.09
2023-11-02T02:17:58.489Z,11.08
2023-11-02T02:20:35.340Z,11.07
2023-11-02T02:23:15.149Z,11.06
2023-11-02T02:25:55.282Z,11.01
2023-11-02T02:28:55.742Z,11.02
2023-11-02T02:31:44.163Z,11.00
2023-11-02T02:34:53.001Z,10.98
2023-11-02T02:37:31.385Z,10.96
2023-11-02T02:40:08.256Z,10.93
2023-11-02T02:42:40.002Z,10.95
2023-11-02T02:45:12.218Z,10.94
2023-11-02T02:47:43.539Z,10.89
2023-11-02T02:50:16.357Z,10.86
2023-11-02T02:52:53.520Z,10.81
2023-11-02T02:55:25.647Z,10.79
2023-11-02T02:57:58.984Z,10.74
2023-11-02T03:00:31.640Z,10.72
2023-11-02T03:03:23.108Z,10.71
2023-11-02T03:05:56.870Z,10.73
2023-11-02T03:08:33.295Z,10.72
2023-11-02T03:11:09.523Z,10.67
2023-11-02T03:13:48.395Z,10.61
2023-11-02T03:16:23.296Z,10.56
2023-11-02T03:18:53.597Z,10.53
2023-11-02T03:21:23.875Z,10.53
2023-11-02T03:24:04.000Z,10.53
2023-11-02T03:26:43.387Z,10.51
2023-11-02T03:29:23.030Z,10.44
2023-11-02T03:32:01.441Z,10.43
2023-11-02T03:34:41.485Z,10.36
2023-11-02T03:37:19.400Z,10.33
2023-11-02T03:40:13.302Z,10.31
2023-11-02T03:42:53.328Z,10.32
2023-11-02T03:45:35.972Z,10.33
2023-11-02T03:48:22.409Z,10.32
2023-11-02T03:51:02.645Z,10.29
2023-11-02T03:53:41.149Z,10.28
2023-11-02T03:56:29.565Z,10.28
2023-11-02T03:59:09.522Z,10.24
2023-11-02T04:01:52.536Z,10.21
2023-11-02T04:04:30.351Z,10.16
2023-11-02T04:07:08.771Z,10.15
2023-11-02T04:09:45.828Z,10.11
2023-11-02T04:12:30.721Z,10.08
2023-11-02T04:15:04.200Z,10.03
2023-11-02T04:17:35.067Z,9.99
2023-11-02T04:20:06.103Z,9.95
2023-11-02T04:22:36.323Z,9.90
2023-11-02T04:25:06.842Z,9.89
2023-11-02T04:27:40.572Z,9.88
2023-11-02T04:30:12.056Z,9.85
2023-11-02T04:32:42.324Z,9.80
2023-11-02T04:35:13.693Z,9.79
2023-11-02T04:37:44.350Z,9.79
2023-11-02T04:40:15.192Z,9.81
2023-11-02T04:42:47.937Z,9.83
2023-11-02T04:45:18.292Z,9.83
2023-11-02T04:47:48.413Z,9.81
2023-11-02T04:50:21.120Z,9.77
2023-11-02T04:52:52.140Z,9.77
2023-11-02T04:55:22.181Z,9.72
2023-11-02T04:57:54.889Z,9.68
2023-11-02T05:00:25.714Z,9.68
2023-11-02T05:02:55.800Z,9.67
2023-11-02T05:05:25.954Z,9.65
2023-11-02T05:07:56.137Z,9.64
2023-11-02T05:10:29.194Z,9.60
2023-11-02T05:13:11.095Z,9.56
2023-11-02T05:15:55.364Z,9.56
2023-11-02T05:18:27.099Z,9.58
2023-11-02T05:20:59.267Z,9.58
2023-11-02T05:23:29.525Z,9.58
2023-11-02T05:25:59.556Z,9.58
2023-11-02T05:28:32.776Z,9.55
2023-11-02T05:31:02.861Z,9.56
2023-11-02T05:33:32.954Z,9.53
2023-11-02T05:36:04.257Z,9.52
2023-11-02T05:38:34.336Z,9.51
2023-11-02T05:41:04.465Z,9.49
2023-11-02T05:43:38.277Z,9.49
2023-11-02T05:46:09.237Z,9.48
2023-11-02T05:48:39.336Z,9.45
2023-11-02T05:51:10.487Z,9.45
2023-11-02T05:53:40.774Z,9.43
2023-11-02T05:56:16.615Z,9.40
2023-11-02T05:58:55.041Z,9.31
2023-11-02T06:01:25.113Z,9.29
2023-11-02T06:03:55.242Z,9.25
2023-11-02T06:06:25.573Z,9.28
2023-11-02T06:08:55.695Z,9.26
2023-11-02T06:11:26.035Z,9.29
2023-11-02T06:14:00.082Z,9.31
2023-11-02T06:16:30.275Z,9.30
2023-11-02T06:19:00.323Z,9.29
2023-11-02T06:21:30.474Z,9.30
2023-11-02T06:24:00.811Z,9.30
2023-11-02T06:26:30.873Z,9.35
2023-11-02T06:29:03.569Z,9.42
2023-11-02T06:31:33.727Z,9.48
2023-11-02T06:34:03.888Z,9.53
2023-11-02T06:36:34.196Z,9.59
2023-11-02T06:39:04.800Z,9.68
2023-11-02T06:41:35.069Z,9.76
2023-11-02T06:44:08.184Z,9.86
2023-11-02T06:46:42.369Z,9.98
2023-11-02T06:49:15.556Z,10.12
2023-11-02T06:51:45.689Z,10.29
2023-11-02T06:54:15.771Z,10.42
2023-11-02T06:56:45.995Z,10.50
2023-11-02T06:59:18.671Z,10.63
2023-11-02T07:01:51.487Z,10.82
2023-11-02T07:04:21.695Z,11.00
2023-11-02T07:06:51.960Z,11.04
2023-11-02T07:09:22.284Z,11.08
2023-11-02T07:11:52.463Z,10.96
2023-11-02T07:14:44.174Z,10.86
2023-11-02T07:17:20.752Z,10.78
2023-11-02T07:19:51.289Z,10.73
2023-11-02T07:22:21.541Z,10.80
2023-11-02T07:24:51.614Z,10.84
2023-11-02T07:27:21.693Z,10.85
2023-11-02T07:29:54.402Z,10.93
2023-11-02T07:32:24.489Z,11.01
2023-11-02T07:34:54.818Z,11.09
2023-11-02T07:37:25.034Z,11.41
2023-11-02T07:39:55.214Z,11.85
2023-11-02T07:42:25.406Z,12.01
2023-11-02T07:44:58.220Z,12.04
2023-11-02T07:47:28.376Z,11.98
2023-11-02T07:49:58.654Z,11.83
2023-11-02T07:52:28.916Z,11.71
2023-11-02T07:54:59.304Z,11.67
2023-11-02T07:57:31.079Z,11.61
2023-11-02T08:00:04.527Z,11.56
2023-11-02T08:02:42.158Z,11.50
2023-11-02T08:05:12.903Z,11.48
2023-11-02T08:07:43.071Z,11.46
2023-11-02T08:10:13.558Z,11.51
2023-11-02T08:12:43.833Z,11.52
2023-11-02T08:15:16.963Z,11.55
2023-11-02T08:17:47.381Z,11.57
2023-11-02T08:20:18.905Z,11.68
2023-11-02T08:22:49.478Z,12.03
2023-11-02T08:25:20.238Z,12.24
2023-11-02T08:27:58.510Z,12.36
2023-11-02T08:30:32.207Z,12.45
2023-11-02T08:33:02.632Z,12.44
2023-11-02T08:35:32.761Z,12.47
2023-11-02T08:38:03.440Z,12.86
2023-11-02T08:40:33.559Z,13.34
2023-11-02T08:43:04.490Z,13.61
2023-11-02T08:45:37.266Z,13.87
2023-11-02T08:48:08.599Z,13.98
2023-11-02T08:50:42.590Z,13.92
2023-11-02T08:53:17.170Z,13.74
2023-11-02T08:55:53.072Z,13.63
2023-11-02T08:58:23.098Z,13.45
2023-11-02T09:00:55.814Z,13.31
2023-11-02T09:03:25.927Z,13.21
2023-11-02T09:05:56.245Z,13.09
2023-11-02T09:08:26.388Z,13.01
2023-11-02T09:10:56.764Z,12.93
2023-11-02T09:13:26.885Z,12.87
2023-11-02T09:15:59.604Z,12.81
2023-11-02T09:18:29.825Z,12.78
2023-11-02T09:21:00.232Z,12.98
2023-11-02T09:23:30.541Z,13.42
2023-11-02T09:26:00.923Z,13.52
2023-11-02T09:28:31.117Z,13.47
2023-11-02T09:31:04.067Z,13.38
2023-11-02T09:33:34.218Z,13.31
2023-11-02T09:36:04.646Z,13.26
2023-11-02T09:38:34.737Z,13.27
2023-11-02T09:41:04.780Z,13.28
2023-11-02T09:43:35.302Z,13.36
2023-11-02T09:46:08.885Z,13.40
2023-11-02T09:48:39.312Z,13.59
2023-11-02T09:51:12.224Z,13.88
2023-11-02T09:53:45.388Z,14.31
2023-11-02T09:56:16.346Z,14.41
2023-11-02T09:58:47.559Z,14.68
2023-11-02T10:01:21.150Z,15.24
2023-11-02T10:03:51.409Z,15.70
2023-11-02T10:06:21.717Z,16.22
2023-11-02T10:08:52.024Z,16.40
2023-11-02T10:11:26.097Z,16.27
2023-11-02T10:13:57.566Z,16.17
2023-11-02T10:16:30.322Z,16.18
2023-11-02T10:19:00.693Z,16.19
2023-11-02T10:21:30.943Z,16.34
2023-11-02T10:24:03.434Z,16.16
2023-11-02T10:26:35.627Z,15.90
2023-11-02T10:29:06.868Z,15.73
2023-11-02T10:31:39.785Z,15.55
2023-11-02T10:34:11.096Z,15.39
2023-11-02T10:36:41.252Z,15.28
2023-11-02T10:39:12.023Z,15.20
2023-11-02T10:41:42.520Z,15.09
2023-11-02T10:44:14.172Z,14.97
2023-11-02T10:46:47.833Z,14.89
2023-11-02T10:49:20.115Z,14.79
2023-11-02T10:51:52.474Z,14.69
2023-11-02T10:54:38.679Z,14.59
2023-11-02T10:57:18.683Z,14.50
2023-11-02T10:59:50.268Z,14.46
2023-11-02T11:02:23.159Z,14.40
2023-11-02T11:05:00.075Z,14.38
2023-11-02T11:07:36.049Z,14.39
2023-11-02T11:10:10.013Z,14.37
2023-11-02T11:12:41.727Z,14.34
2023-11-02T11:15:13.484Z,14.33
2023-11-02T11:17:49.435Z,14.29
2023-11-02T11:20:20.728Z,14.27
2023-11-02T11:22:54.530Z,14.37
2023-11-02T11:25:24.758Z,14.47
2023-11-02T11:27:54.948Z,14.44
2023-11-02T11:30:39.032Z,14.46
2023-11-02T11:33:53.881Z,14.51
2023-11-02T11:36:29.254Z,14.44
2023-11-02T11:39:00.838Z,14.37
2023-11-02T11:41:47.523Z,14.32
2023-11-02T11:44:21.804Z,14.24
2023-11-02T11:46:54.844Z,14.17
2023-11-02T11:49:49.264Z,14.14
2023-11-02T11:52:29.423Z,14.12
2023-11-02T11:54:59.583Z,14.08
2023-11-02T11:57:58.880Z,14.04
2023-11-02T12:00:32.032Z,14.01
2023-11-02T12:03:05.772Z,14.00
2023-11-02T12:05:59.877Z,14.01
2023-11-02T12:08:29.951Z,14.03
2023-11-02T12:11:02.018Z,14.01
2023-11-02T12:13:32.125Z,14.02
2023-11-02T12:16:04.746Z,14.00
2023-11-02T12:18:38.014Z,13.94
2023-11-02T12:21:19.266Z,13.92
2023-11-02T12:23:51.765Z,13.90
2023-11-02T12:26:23.193Z,13.90
2023-11-02T12:28:57.800Z,13.89
2023-11-02T12:31:32.715Z,13.92
2023-11-02T12:34:05.188Z,13.95
2023-11-02T12:36:38.251Z,13.97
2023-11-02T12:39:15.915Z,14.00
2023-11-02T12:41:49.121Z,14.01
2023-11-02T12:44:21.543Z,14.01
2023-11-02T12:46:54.661Z,14.00
2023-11-02T12:49:26.945Z,13.99
2023-11-02T12:52:10.830Z,14.11
2023-11-02T12:54:41.158Z,14.22
2023-11-02T12:57:13.087Z,14.27
2023-11-02T12:59:46.150Z,14.36
2023-11-02T13:02:27.145Z,14.44
2023-11-02T13:04:59.889Z,14.46
2023-11-02T13:07:36.584Z,14.39
2023-11-02T13:10:11.635Z,14.35
2023-11-02T13:12:45.684Z,14.32
2023-11-02T13:15:18.251Z,14.28
2023-11-02T13:17:49.771Z,14.25
2023-11-02T13:20:23.495Z,14.22
2023-11-02T13:22:58.985Z,14.19
2023-11-02T13:25:29.103Z,14.13
2023-11-02T13:28:00.626Z,14.12
2023-11-02T13:30:30.969Z,14.06
2023-11-02T13:33:05.645Z,14.07
2023-11-02T13:35:36.237Z,14.05
2023-11-02T13:38:10.231Z,14.05
2023-11-02T13:40:40.504Z,14.04
2023-11-02T13:43:10.862Z,14.02
2023-11-02T13:45:41.685Z,14.01
2023-11-02T13:48:13.490Z,14.04
2023-11-02T13:50:43.681Z,14.05
2023-11-02T13:53:16.405Z,14.04
2023-11-02T13:55:48.323Z,14.05
2023-11-02T13:58:19.533Z,14.04
2023-11-02T14:00:51.606Z,14.04
2023-11-02T14:03:22.609Z,14.04
2023-11-02T14:05:55.428Z,14.00
2023-11-02T14:08:28.200Z,13.96
2023-11-02T14:10:59.151Z,13.93
2023-11-02T14:13:32.961Z,13.90
2023-11-02T14:16:03.191Z,13.89
2023-11-02T14:18:33.613Z,13.88
2023-11-02T14:21:06.225Z,13.88
2023-11-02T14:23:38.932Z,13.88
2023-11-02T14:26:09.214Z,13.87
2023-11-02T14:28:39.305Z,13.84
2023-11-02T14:31:12.359Z,13.83
2023-11-02T14:33:44.417Z,13.80
2023-11-02T14:36:18.607Z,13.79
2023-11-02T14:38:51.334Z,13.76
2023-11-02T14:41:23.639Z,13.75
2023-11-02T14:43:56.718Z,13.74
2023-11-02T14:46:26.930Z,13.73
2023-11-02T14:48:57.300Z,13.69
2023-11-02T14:51:27.471Z,13.67
2023-11-02T14:54:09.527Z,13.64
2023-11-02T14:56:42.107Z,13.62
2023-11-02T14:59:12.400Z,13.58
2023-11-02T15:01:42.468Z,13.54
2023-11-02T15:04:13.699Z,13.53
2023-11-02T15:06:43.964Z,13.51
2023-11-02T15:09:16.898Z,13.51
2023-11-02T15:11:48.865Z,13.47
2023-11-02T15:14:19.181Z,13.45
2023-11-02T15:16:51.132Z,13.44
2023-11-02T15:19:21.741Z,13.43
2023-11-02T15:21:51.943Z,13.42
2023-11-02T15:24:25.565Z,13.42
2023-11-02T15:26:55.850Z,13.41
2023-11-02T15:29:35.335Z,13.41
2023-11-02T15:32:09.011Z,13.38
2023-11-02T15:34:55.097Z,13.34
2023-11-02T15:37:26.372Z,13.32
2023-11-02T15:39:59.422Z,13.28
2023-11-02T15:42:31.490Z,13.26
2023-11-02T15:45:04.793Z,13.24
2023-11-02T15:47:36.566Z,13.22
2023-11-02T15:50:09.114Z,13.21
2023-11-02T15:52:45.264Z,13.20
2023-11-02T15:55:18.281Z,13.18
2023-11-02T15:57:51.607Z,13.15
2023-11-02T16:00:22.716Z,13.13
2023-11-02T16:02:55.452Z,13.11
2023-11-02T16:05:26.883Z,13.10
2023-11-02T16:07:59.030Z,13.10
2023-11-02T16:10:39.367Z,13.08
2023-11-02T16:13:09.508Z,13.08
2023-11-02T16:15:39.922Z,13.11
2023-11-02T16:18:10.272Z,13.11
2023-11-02T16:20:44.751Z,13.10
2023-11-02T16:23:15.108Z,13.10
2023-11-02T16:25:47.969Z,13.11
2023-11-02T16:28:18.105Z,13.11
2023-11-02T16:30:48.490Z,13.11
2023-11-02T16:33:19.192Z,13.11
2023-11-02T16:35:51.928Z,13.10
2023-11-02T16:38:27.421Z,13.08
2023-11-02T16:41:00.727Z,13.04
2023-11-02T16:43:31.904Z,13.02
2023-11-02T16:46:02.018Z,13.03
2023-11-02T16:48:32.640Z,13.02
2023-11-02T16:51:02.888Z,13.03
2023-11-02T16:53:33.015Z,13.01
2023-11-02T16:56:05.868Z,13.00
2023-11-02T16:58:36.498Z,12.95
2023-11-02T17:01:07.619Z,12.91
2023-11-02T17:03:37.957Z,12.88
2023-11-02T17:06:08.933Z,12.84
2023-11-02T17:08:39.078Z,12.80
2023-11-02T17:11:12.670Z,12.77
2023-11-02T17:13:42.905Z,12.75
2023-11-02T17:16:13.937Z,12.70
2023-11-02T17:18:44.730Z,12.66
2023-11-02T17:21:16.408Z,12.62
2023-11-02T17:23:47.667Z,12.57
2023-11-02T17:26:20.712Z,12.52
2023-11-02T17:28:51.032Z,12.53
2023-11-02T17:31:21.337Z,12.55
2023-11-02T17:33:52.104Z,12.55
2023-11-02T17:36:22.501Z,12.52
2023-11-02T17:38:52.696Z,12.50
2023-11-02T17:41:25.489Z,12.50
2023-11-02T17:43:55.890Z,12.49
2023-11-02T17:46:26.011Z,12.45
2023-11-02T17:48:56.350Z,12.42
2023-11-02T17:51:27.475Z,12.42
2023-11-02T17:53:57.642Z,12.40
2023-11-02T17:59:15.165Z,12.27
2023-11-02T18:01:49.045Z,12.22
2023-11-02T18:04:19.414Z,12.15
2023-11-02T18:06:56.837Z,12.09
2023-11-02T18:09:30.496Z,12.03
2023-11-02T18:12:03.947Z,11.99
2023-11-02T18:14:36.387Z,11.96
2023-11-02T18:17:06.661Z,11.93
2023-11-02T18:19:39.133Z,11.92
2023-11-02T18:22:10.443Z,11.86
2023-11-02T18:24:44.011Z,11.76
2023-11-02T18:27:17.115Z,11.72
2023-11-02T18:29:47.702Z,11.68
2023-11-02T18:32:20.372Z,11.66
2023-11-02T18:34:56.346Z,11.64
2023-11-02T18:37:29.651Z,11.63
2023-11-02T18:40:03.961Z,11.61
2023-11-02T18:42:38.913Z,11.62
2023-11-02T18:45:12.838Z,11.59
2023-11-02T18:47:50.633Z,11.57
2023-11-02T18:50:49.584Z,11.52
2023-11-02T18:53:24.101Z,11.51
2023-11-02T18:55:56.767Z,11.47
2023-11-02T18:58:31.406Z,11.42
2023-11-02T19:01:04.023Z,11.43
2023-11-02T19:03:36.539Z,11.43
2023-11-02T19:06:10.397Z,11.43
2023-11-02T19:08:44.596Z,11.45
2023-11-02T19:11:21.886Z,11.43
2023-11-02T19:13:54.787Z,11.40
2023-11-02T19:16:24.976Z,11.38
2023-11-02T19:18:57.817Z,11.37
2023-11-02T19:21:28.869Z,11.37
2023-11-02T19:24:01.846Z,11.39
2023-11-02T19:26:33.630Z,11.41
2023-11-02T19:29:11.008Z,11.43
2023-11-02T19:31:47.780Z,11.39
2023-11-02T19:34:18.025Z,11.36
2023-11-02T19:36:52.501Z,11.39
2023-11-02T19:40:01.859Z,11.47
2023-11-02T19:42:33.326Z,11.47
2023-11-02T19:45:06.603Z,11.46
2023-11-02T19:47:38.216Z,11.46
2023-11-02T19:50:12.059Z,11.43
2023-11-02T19:52:43.317Z,11.43
2023-11-02T19:55:16.782Z,11.41
2023-11-02T19:57:48.275Z,11.42
2023-11-02T20:00:22.261Z,11.40
2023-11-02T20:02:53.017Z,11.37
2023-11-02T20:05:23.388Z,11.40
2023-11-02T20:07:56.592Z,11.43
2023-11-02T20:10:28.691Z,11.42
2023-11-02T20:12:58.815Z,11.42
2023-11-02T20:15:31.663Z,11.40
2023-11-02T20:18:01.916Z,11.39
2023-11-02T20:20:34.664Z,11.38
2023-11-02T20:23:07.782Z,11.37
2023-11-02T20:25:38.106Z,11.38
2023-11-02T20:28:11.127Z,11.35
2023-11-02T20:30:49.323Z,11.32
2023-11-02T20:33:19.368Z,11.33
2023-11-02T20:35:52.789Z,11.33
2023-11-02T20:38:22.865Z,11.33
2023-11-02T20:40:55.538Z,11.34
2023-11-02T20:43:25.698Z,11.29
2023-11-02T20:45:58.457Z,11.23
2023-11-02T20:48:42.203Z,11.21
2023-11-02T20:51:19.999Z,11.15
2023-11-02T20:53:50.177Z,11.14
2023-11-02T20:56:20.377Z,11.17
2023-11-02T20:58:50.612Z,11.17
2023-11-02T21:01:23.340Z,11.17
2023-11-02T21:03:56.031Z,11.15
2023-11-02T21:06:34.485Z,11.12
2023-11-02T21:09:05.233Z,11.12
2023-11-02T21:11:39.476Z,11.12
2023-11-02T21:14:27.669Z,11.10
2023-11-02T21:47:47.855Z,10.90
2023-11-02T22:17:42.693Z,11.42
2023-11-02T22:20:46.121Z,11.31
2023-11-02T22:26:31.330Z,11.16
2023-11-02T22:29:40.804Z,11.10
2023-11-02T22:32:51.114Z,11.08
2023-11-02T22:35:35.108Z,11.07
2023-11-02T22:38:16.913Z,11.06
2023-11-02T22:40:57.407Z,11.03
2023-11-02T22:43:38.722Z,11.02
2023-11-02T22:46:15.915Z,10.98
2023-11-02T22:49:00.126Z,10.97
2023-11-02T22:51:38.110Z,10.96
2023-11-02T22:54:40.358Z,10.94
2023-11-02T22:57:57.353Z,10.89
2023-11-02T23:01:21.523Z,10.88
2023-11-02T23:08:20.589Z,10.83
2023-11-02T23:23:18.045Z,10.85
2023-11-02T23:30:13.200Z,10.84
2023-11-02T23:32:58.855Z,10.81
2023-11-02T23:35:37.982Z,10.80
2023-11-02T23:42:07.891Z,10.82
2023-11-02T23:45:00.884Z,10.79
2023-11-02T23:48:11.085Z,10.78
2023-11-02T23:51:06.094Z,10.81
2023-11-02T23:53:49.080Z,10.83
2023-11-02T23:56:55.221Z,10.85
2023-11-02T23:59:48.597Z,10.89
